sensor_id;sensor_type;location;lat;lon;timestamp;P1;durP1;ratioP1;P2;durP2;ratioP2
22531;SDS011;11432;46.924;7.114;2022-11-15T00:01:24;5.07;;;2.25;;
22531;SDS011;11432;46.924;7.114;2022-11-15T00:03:52;4.22;;;2.47;;
22531;SDS011;11432;46.924;7.114;2022-11-15T00:06:18;6.00;;;2.20;;
22531;SDS011;11432;46.924;7.114;2022-11-15T00:08:43;3.85;;;2.40;;
22531;SDS011;11432;46.924;7.114;2022-11-15T00:11:10;5.97;;;2.28;;
22531;SDS011;11432;46.924;7.114;2022-11-15T00:13:37;4.75;;;2.10;;
22531;SDS011;11432;46.924;7.114;2022-11-15T00:16:02;4.72;;;2.25;;
22531;SDS011;11432;46.924;7.114;2022-11-15T00:18:29;7.97;;;2.53;;
22531;SDS011;11432;46.924;7.114;2022-11-15T00:20:55;2.92;;;1.90;;
22531;SDS011;11432;46.924;7.114;2022-11-15T00:23:27;4.50;;;2.13;;
22531;SDS011;11432;46.924;7.114;2022-11-15T00:25:57;3.20;;;2.15;;
22531;SDS011;11432;46.924;7.114;2022-11-15T00:28:23;4.20;;;2.10;;
22531;SDS011;11432;46.924;7.114;2022-11-15T00:30:49;3.42;;;2.13;;
22531;SDS011;11432;46.924;7.114;2022-11-15T00:33:15;4.38;;;2.08;;
22531;SDS011;11432;46.924;7.114;2022-11-15T00:35:41;4.30;;;2.30;;
22531;SDS011;11432;46.924;7.114;2022-11-15T00:38:07;5.95;;;2.20;;
22531;SDS011;11432;46.924;7.114;2022-11-15T00:40:32;5.75;;;2.40;;
22531;SDS011;11432;46.924;7.114;2022-11-15T00:42:58;3.03;;;2.20;;
22531;SDS011;11432;46.924;7.114;2022-11-15T00:45:24;6.50;;;2.70;;
22531;SDS011;11432;46.924;7.114;2022-11-15T00:47:50;4.03;;;2.30;;
22531;SDS011;11432;46.924;7.114;2022-11-15T00:50:16;5.35;;;2.42;;
22531;SDS011;11432;46.924;7.114;2022-11-15T00:52:42;4.25;;;2.33;;
22531;SDS011;11432;46.924;7.114;2022-11-15T00:55:09;4.38;;;2.30;;
22531;SDS011;11432;46.924;7.114;2022-11-15T00:57:42;3.80;;;2.33;;
22531;SDS011;11432;46.924;7.114;2022-11-15T01:00:08;3.58;;;2.25;;
22531;SDS011;11432;46.924;7.114;2022-11-15T01:02:34;4.55;;;2.60;;
22531;SDS011;11432;46.924;7.114;2022-11-15T01:04:59;4.32;;;2.13;;
22531;SDS011;11432;46.924;7.114;2022-11-15T01:07:25;3.33;;;1.80;;
22531;SDS011;11432;46.924;7.114;2022-11-15T01:09:51;3.97;;;2.60;;
22531;SDS011;11432;46.924;7.114;2022-11-15T01:12:16;3.80;;;2.20;;
22531;SDS011;11432;46.924;7.114;2022-11-15T01:14:42;3.85;;;2.30;;
22531;SDS011;11432;46.924;7.114;2022-11-15T01:17:08;3.65;;;2.03;;
22531;SDS011;11432;46.924;7.114;2022-11-15T01:19:33;3.35;;;2.00;;
22531;SDS011;11432;46.924;7.114;2022-11-15T01:21:59;3.03;;;2.13;;
22531;SDS011;11432;46.924;7.114;2022-11-15T01:24:24;4.78;;;2.33;;
22531;SDS011;11432;46.924;7.114;2022-11-15T01:26:50;3.55;;;2.38;;
22531;SDS011;11432;46.924;7.114;2022-11-15T01:29:16;7.35;;;2.70;;
22531;SDS011;11432;46.924;7.114;2022-11-15T01:31:41;3.95;;;2.42;;
22531;SDS011;11432;46.924;7.114;2022-11-15T01:34:07;6.03;;;2.60;;
22531;SDS011;11432;46.924;7.114;2022-11-15T01:36:33;3.42;;;2.17;;
22531;SDS011;11432;46.924;7.114;2022-11-15T01:38:59;3.78;;;2.20;;
22531;SDS011;11432;46.924;7.114;2022-11-15T01:41:26;5.55;;;1.80;;
22531;SDS011;11432;46.924;7.114;2022-11-15T01:43:54;3.17;;;2.10;;
22531;SDS011;11432;46.924;7.114;2022-11-15T01:46:33;3.23;;;2.30;;
22531;SDS011;11432;46.924;7.114;2022-11-15T01:49:02;6.28;;;2.10;;
22531;SDS011;11432;46.924;7.114;2022-11-15T01:51:36;3.10;;;2.03;;
22531;SDS011;11432;46.924;7.114;2022-11-15T01:54:07;2.55;;;1.75;;
22531;SDS011;11432;46.924;7.114;2022-11-15T01:56:43;2.72;;;1.70;;
22531;SDS011;11432;46.924;7.114;2022-11-15T01:59:37;3.60;;;1.80;;
22531;SDS011;11432;46.924;7.114;2022-11-15T02:02:05;3.53;;;1.80;;
22531;SDS011;11432;46.924;7.114;2022-11-15T02:04:31;2.88;;;1.67;;
22531;SDS011;11432;46.924;7.114;2022-11-15T02:06:59;5.25;;;2.10;;
22531;SDS011;11432;46.924;7.114;2022-11-15T02:09:29;4.20;;;1.98;;
22531;SDS011;11432;46.924;7.114;2022-11-15T02:11:55;3.63;;;1.75;;
22531;SDS011;11432;46.924;7.114;2022-11-15T02:14:21;5.57;;;2.10;;
22531;SDS011;11432;46.924;7.114;2022-11-15T02:36:00;4.10;;;2.20;;
22531;SDS011;11432;46.924;7.114;2022-11-15T02:43:41;4.38;;;2.15;;
22531;SDS011;11432;46.924;7.114;2022-11-15T02:49:26;3.38;;;1.95;;
22531;SDS011;11432;46.924;7.114;2022-11-15T02:51:56;2.22;;;1.75;;
22531;SDS011;11432;46.924;7.114;2022-11-15T02:54:23;5.78;;;2.65;;
22531;SDS011;11432;46.924;7.114;2022-11-15T02:56:56;6.38;;;1.70;;
22531;SDS011;11432;46.924;7.114;2022-11-15T03:10:08;3.38;;;1.90;;
22531;SDS011;11432;46.924;7.114;2022-11-15T03:15:09;2.58;;;1.83;;
22531;SDS011;11432;46.924;7.114;2022-11-15T03:17:58;3.60;;;2.10;;
22531;SDS011;11432;46.924;7.114;2022-11-15T03:20:27;2.78;;;2.00;;
22531;SDS011;11432;46.924;7.114;2022-11-15T03:22:54;3.50;;;1.75;;
22531;SDS011;11432;46.924;7.114;2022-11-15T03:25:24;4.07;;;1.67;;
22531;SDS011;11432;46.924;7.114;2022-11-15T03:27:53;2.90;;;2.00;;
22531;SDS011;11432;46.924;7.114;2022-11-15T03:32:50;2.50;;;1.65;;
22531;SDS011;11432;46.924;7.114;2022-11-15T03:35:22;4.45;;;1.85;;
22531;SDS011;11432;46.924;7.114;2022-11-15T03:37:53;3.35;;;1.60;;
22531;SDS011;11432;46.924;7.114;2022-11-15T03:40:21;2.80;;;1.90;;
22531;SDS011;11432;46.924;7.114;2022-11-15T03:43:04;2.38;;;1.70;;
22531;SDS011;11432;46.924;7.114;2022-11-15T03:45:32;3.22;;;1.90;;
22531;SDS011;11432;46.924;7.114;2022-11-15T03:48:07;3.38;;;1.92;;
22531;SDS011;11432;46.924;7.114;2022-11-15T03:50:46;2.30;;;1.60;;
22531;SDS011;11432;46.924;7.114;2022-11-15T03:53:12;5.60;;;1.73;;
22531;SDS011;11432;46.924;7.114;2022-11-15T03:55:39;2.58;;;1.70;;
22531;SDS011;11432;46.924;7.114;2022-11-15T03:58:04;3.25;;;1.67;;
22531;SDS011;11432;46.924;7.114;2022-11-15T04:00:30;2.63;;;1.70;;
22531;SDS011;11432;46.924;7.114;2022-11-15T04:02:55;2.40;;;1.50;;
22531;SDS011;11432;46.924;7.114;2022-11-15T04:05:21;1.95;;;1.38;;
22531;SDS011;11432;46.924;7.114;2022-11-15T04:07:47;3.25;;;1.50;;
22531;SDS011;11432;46.924;7.114;2022-11-15T04:10:12;2.88;;;1.60;;
22531;SDS011;11432;46.924;7.114;2022-11-15T04:12:39;1.67;;;1.33;;
22531;SDS011;11432;46.924;7.114;2022-11-15T04:15:12;4.75;;;1.60;;
22531;SDS011;11432;46.924;7.114;2022-11-15T04:17:52;5.18;;;1.58;;
22531;SDS011;11432;46.924;7.114;2022-11-15T04:20:20;3.15;;;1.52;;
22531;SDS011;11432;46.924;7.114;2022-11-15T04:25:58;3.15;;;1.52;;
22531;SDS011;11432;46.924;7.114;2022-11-15T04:28:25;4.80;;;1.80;;
22531;SDS011;11432;46.924;7.114;2022-11-15T04:30:51;2.58;;;1.80;;
22531;SDS011;11432;46.924;7.114;2022-11-15T04:33:17;2.88;;;1.52;;
22531;SDS011;11432;46.924;7.114;2022-11-15T04:35:43;1.50;;;1.30;;
22531;SDS011;11432;46.924;7.114;2022-11-15T04:38:29;3.17;;;1.42;;
22531;SDS011;11432;46.924;7.114;2022-11-15T04:40:55;2.20;;;1.30;;
22531;SDS011;11432;46.924;7.114;2022-11-15T04:43:20;3.75;;;1.80;;
22531;SDS011;11432;46.924;7.114;2022-11-15T04:45:46;4.60;;;2.33;;
22531;SDS011;11432;46.924;7.114;2022-11-15T04:48:12;3.22;;;1.70;;
22531;SDS011;11432;46.924;7.114;2022-11-15T04:50:37;2.85;;;1.80;;
22531;SDS011;11432;46.924;7.114;2022-11-15T04:53:03;3.45;;;2.20;;
22531;SDS011;11432;46.924;7.114;2022-11-15T04:55:28;4.82;;;2.00;;
22531;SDS011;11432;46.924;7.114;2022-11-15T04:58:01;2.45;;;1.60;;
22531;SDS011;11432;46.924;7.114;2022-11-15T05:00:28;2.63;;;1.70;;
22531;SDS011;11432;46.924;7.114;2022-11-15T05:02:54;2.67;;;1.73;;
22531;SDS011;11432;46.924;7.114;2022-11-15T05:05:38;2.80;;;1.63;;
22531;SDS011;11432;46.924;7.114;2022-11-15T05:08:04;3.30;;;1.80;;
22531;SDS011;11432;46.924;7.114;2022-11-15T05:10:30;3.05;;;1.75;;
22531;SDS011;11432;46.924;7.114;2022-11-15T05:12:55;3.75;;;1.90;;
22531;SDS011;11432;46.924;7.114;2022-11-15T05:15:21;3.53;;;1.77;;
22531;SDS011;11432;46.924;7.114;2022-11-15T05:17:47;7.95;;;3.08;;
22531;SDS011;11432;46.924;7.114;2022-11-15T05:20:12;18.77;;;6.85;;
22531;SDS011;11432;46.924;7.114;2022-11-15T05:22:38;11.00;;;5.07;;
22531;SDS011;11432;46.924;7.114;2022-11-15T05:25:04;9.32;;;2.70;;
22531;SDS011;11432;46.924;7.114;2022-11-15T05:27:30;4.93;;;2.35;;
22531;SDS011;11432;46.924;7.114;2022-11-15T05:29:56;3.40;;;1.98;;
22531;SDS011;11432;46.924;7.114;2022-11-15T05:32:21;5.47;;;1.63;;
22531;SDS011;11432;46.924;7.114;2022-11-15T05:34:47;3.70;;;2.00;;
22531;SDS011;11432;46.924;7.114;2022-11-15T05:37:13;2.75;;;1.73;;
22531;SDS011;11432;46.924;7.114;2022-11-15T05:39:40;4.65;;;2.47;;
22531;SDS011;11432;46.924;7.114;2022-11-15T05:42:06;4.93;;;2.33;;
22531;SDS011;11432;46.924;7.114;2022-11-15T05:44:32;3.53;;;2.10;;
22531;SDS011;11432;46.924;7.114;2022-11-15T05:46:59;2.85;;;1.75;;
22531;SDS011;11432;46.924;7.114;2022-11-15T05:49:26;6.75;;;2.63;;
22531;SDS011;11432;46.924;7.114;2022-11-15T05:51:57;3.40;;;1.77;;
22531;SDS011;11432;46.924;7.114;2022-11-15T05:54:23;3.42;;;1.95;;
22531;SDS011;11432;46.924;7.114;2022-11-15T05:56:50;3.83;;;2.35;;
22531;SDS011;11432;46.924;7.114;2022-11-15T05:59:16;2.35;;;1.67;;
22531;SDS011;11432;46.924;7.114;2022-11-15T06:01:43;2.80;;;1.73;;
22531;SDS011;11432;46.924;7.114;2022-11-15T06:04:08;3.75;;;1.83;;
22531;SDS011;11432;46.924;7.114;2022-11-15T06:06:34;3.70;;;2.20;;
22531;SDS011;11432;46.924;7.114;2022-11-15T06:08:59;3.67;;;2.10;;
22531;SDS011;11432;46.924;7.114;2022-11-15T06:11:25;5.05;;;2.30;;
22531;SDS011;11432;46.924;7.114;2022-11-15T06:13:51;6.30;;;2.00;;
22531;SDS011;11432;46.924;7.114;2022-11-15T06:16:16;3.00;;;2.08;;
22531;SDS011;11432;46.924;7.114;2022-11-15T06:18:42;2.35;;;1.50;;
22531;SDS011;11432;46.924;7.114;2022-11-15T06:21:08;4.18;;;1.92;;
22531;SDS011;11432;46.924;7.114;2022-11-15T06:23:34;3.10;;;1.88;;
22531;SDS011;11432;46.924;7.114;2022-11-15T06:26:00;6.53;;;2.60;;
22531;SDS011;11432;46.924;7.114;2022-11-15T06:28:28;5.93;;;3.65;;
22531;SDS011;11432;46.924;7.114;2022-11-15T06:31:03;6.05;;;3.60;;
22531;SDS011;11432;46.924;7.114;2022-11-15T06:33:31;5.60;;;2.45;;
22531;SDS011;11432;46.924;7.114;2022-11-15T06:36:00;3.92;;;2.35;;
22531;SDS011;11432;46.924;7.114;2022-11-15T06:38:29;3.17;;;2.00;;
22531;SDS011;11432;46.924;7.114;2022-11-15T06:40:54;4.07;;;2.08;;
22531;SDS011;11432;46.924;7.114;2022-11-15T06:43:25;2.17;;;1.70;;
22531;SDS011;11432;46.924;7.114;2022-11-15T06:45:51;3.30;;;2.30;;
22531;SDS011;11432;46.924;7.114;2022-11-15T06:48:16;5.00;;;2.20;;
22531;SDS011;11432;46.924;7.114;2022-11-15T06:50:42;3.10;;;2.22;;
22531;SDS011;11432;46.924;7.114;2022-11-15T06:53:07;3.67;;;2.00;;
22531;SDS011;11432;46.924;7.114;2022-11-15T06:55:33;3.17;;;1.80;;
22531;SDS011;11432;46.924;7.114;2022-11-15T06:57:59;2.33;;;1.80;;
22531;SDS011;11432;46.924;7.114;2022-11-15T07:00:24;6.15;;;2.13;;
22531;SDS011;11432;46.924;7.114;2022-11-15T07:02:50;4.03;;;2.53;;
22531;SDS011;11432;46.924;7.114;2022-11-15T07:05:15;4.25;;;2.50;;
22531;SDS011;11432;46.924;7.114;2022-11-15T07:07:41;3.95;;;2.20;;
22531;SDS011;11432;46.924;7.114;2022-11-15T07:10:07;4.72;;;2.15;;
22531;SDS011;11432;46.924;7.114;2022-11-15T07:12:33;5.93;;;2.30;;
22531;SDS011;11432;46.924;7.114;2022-11-15T07:14:59;5.63;;;2.88;;
22531;SDS011;11432;46.924;7.114;2022-11-15T07:17:24;5.22;;;2.25;;
22531;SDS011;11432;46.924;7.114;2022-11-15T07:19:50;4.72;;;2.22;;
22531;SDS011;11432;46.924;7.114;2022-11-15T07:22:15;4.88;;;2.55;;
22531;SDS011;11432;46.924;7.114;2022-11-15T07:24:41;2.85;;;2.10;;
22531;SDS011;11432;46.924;7.114;2022-11-15T07:27:06;3.05;;;2.10;;
22531;SDS011;11432;46.924;7.114;2022-11-15T07:29:32;2.78;;;1.90;;
22531;SDS011;11432;46.924;7.114;2022-11-15T07:31:58;2.80;;;1.73;;
22531;SDS011;11432;46.924;7.114;2022-11-15T07:34:24;3.88;;;1.77;;
22531;SDS011;11432;46.924;7.114;2022-11-15T07:36:49;3.58;;;2.08;;
22531;SDS011;11432;46.924;7.114;2022-11-15T07:39:15;3.25;;;2.03;;
22531;SDS011;11432;46.924;7.114;2022-11-15T07:41:41;3.28;;;2.05;;
22531;SDS011;11432;46.924;7.114;2022-11-15T07:44:08;2.15;;;1.58;;
22531;SDS011;11432;46.924;7.114;2022-11-15T07:46:34;4.30;;;2.10;;
22531;SDS011;11432;46.924;7.114;2022-11-15T07:48:59;3.35;;;2.10;;
22531;SDS011;11432;46.924;7.114;2022-11-15T07:51:25;4.50;;;2.00;;
22531;SDS011;11432;46.924;7.114;2022-11-15T07:53:50;4.20;;;2.03;;
22531;SDS011;11432;46.924;7.114;2022-11-15T07:56:16;4.95;;;2.25;;
22531;SDS011;11432;46.924;7.114;2022-11-15T07:58:42;3.80;;;2.40;;
22531;SDS011;11432;46.924;7.114;2022-11-15T08:01:08;2.75;;;2.33;;
22531;SDS011;11432;46.924;7.114;2022-11-15T08:03:35;5.90;;;2.72;;
22531;SDS011;11432;46.924;7.114;2022-11-15T08:06:01;6.13;;;3.03;;
22531;SDS011;11432;46.924;7.114;2022-11-15T08:08:27;6.00;;;2.40;;
22531;SDS011;11432;46.924;7.114;2022-11-15T08:10:53;4.88;;;2.50;;
22531;SDS011;11432;46.924;7.114;2022-11-15T08:13:19;5.20;;;2.38;;
22531;SDS011;11432;46.924;7.114;2022-11-15T08:15:46;4.45;;;2.20;;
22531;SDS011;11432;46.924;7.114;2022-11-15T08:18:12;3.60;;;2.42;;
22531;SDS011;11432;46.924;7.114;2022-11-15T08:20:39;4.63;;;3.15;;
22531;SDS011;11432;46.924;7.114;2022-11-15T08:23:05;6.35;;;3.90;;
22531;SDS011;11432;46.924;7.114;2022-11-15T08:25:32;5.05;;;3.38;;
22531;SDS011;11432;46.924;7.114;2022-11-15T08:28:00;6.05;;;2.80;;
22531;SDS011;11432;46.924;7.114;2022-11-15T08:30:28;6.07;;;3.10;;
22531;SDS011;11432;46.924;7.114;2022-11-15T08:32:55;5.95;;;3.78;;
22531;SDS011;11432;46.924;7.114;2022-11-15T08:35:22;5.93;;;3.50;;
22531;SDS011;11432;46.924;7.114;2022-11-15T08:37:48;6.00;;;3.55;;
22531;SDS011;11432;46.924;7.114;2022-11-15T08:40:14;7.97;;;3.00;;
22531;SDS011;11432;46.924;7.114;2022-11-15T08:42:40;8.02;;;3.03;;
22531;SDS011;11432;46.924;7.114;2022-11-15T08:45:06;5.75;;;2.83;;
22531;SDS011;11432;46.924;7.114;2022-11-15T08:47:32;3.88;;;2.58;;
22531;SDS011;11432;46.924;7.114;2022-11-15T08:49:58;6.75;;;2.50;;
22531;SDS011;11432;46.924;7.114;2022-11-15T08:52:24;3.92;;;2.45;;
22531;SDS011;11432;46.924;7.114;2022-11-15T08:54:50;5.35;;;3.08;;
22531;SDS011;11432;46.924;7.114;2022-11-15T08:57:16;5.82;;;2.80;;
22531;SDS011;11432;46.924;7.114;2022-11-15T08:59:41;4.32;;;2.38;;
22531;SDS011;11432;46.924;7.114;2022-11-15T09:02:10;3.47;;;2.60;;
22531;SDS011;11432;46.924;7.114;2022-11-15T09:04:39;3.85;;;2.53;;
22531;SDS011;11432;46.924;7.114;2022-11-15T09:07:10;5.13;;;2.50;;
22531;SDS011;11432;46.924;7.114;2022-11-15T09:09:36;5.43;;;2.30;;
22531;SDS011;11432;46.924;7.114;2022-11-15T09:12:03;5.28;;;2.20;;
22531;SDS011;11432;46.924;7.114;2022-11-15T09:14:29;5.55;;;2.30;;
22531;SDS011;11432;46.924;7.114;2022-11-15T09:16:55;4.20;;;2.30;;
22531;SDS011;11432;46.924;7.114;2022-11-15T09:19:20;4.93;;;2.50;;
22531;SDS011;11432;46.924;7.114;2022-11-15T09:21:46;3.28;;;2.17;;
22531;SDS011;11432;46.924;7.114;2022-11-15T09:24:12;4.70;;;2.55;;
22531;SDS011;11432;46.924;7.114;2022-11-15T09:26:37;8.00;;;2.70;;
22531;SDS011;11432;46.924;7.114;2022-11-15T09:29:03;8.57;;;3.78;;
22531;SDS011;11432;46.924;7.114;2022-11-15T09:31:29;6.43;;;3.47;;
22531;SDS011;11432;46.924;7.114;2022-11-15T09:33:54;7.97;;;3.10;;
22531;SDS011;11432;46.924;7.114;2022-11-15T09:36:20;4.80;;;2.58;;
22531;SDS011;11432;46.924;7.114;2022-11-15T09:38:46;4.28;;;2.58;;
22531;SDS011;11432;46.924;7.114;2022-11-15T09:48:54;3.75;;;2.53;;
22531;SDS011;11432;46.924;7.114;2022-11-15T09:51:24;3.95;;;2.45;;
22531;SDS011;11432;46.924;7.114;2022-11-15T09:56:37;3.45;;;2.42;;
22531;SDS011;11432;46.924;7.114;2022-11-15T10:04:03;7.30;;;2.65;;
22531;SDS011;11432;46.924;7.114;2022-11-15T10:06:29;4.85;;;2.80;;
22531;SDS011;11432;46.924;7.114;2022-11-15T10:08:59;5.82;;;2.80;;
22531;SDS011;11432;46.924;7.114;2022-11-15T10:11:31;5.97;;;2.28;;
22531;SDS011;11432;46.924;7.114;2022-11-15T10:14:01;3.60;;;2.28;;
22531;SDS011;11432;46.924;7.114;2022-11-15T10:22:58;5.35;;;2.65;;
22531;SDS011;11432;46.924;7.114;2022-11-15T10:27:58;7.05;;;2.70;;
22531;SDS011;11432;46.924;7.114;2022-11-15T10:41:16;4.15;;;2.50;;
22531;SDS011;11432;46.924;7.114;2022-11-15T10:43:44;4.60;;;2.75;;
22531;SDS011;11432;46.924;7.114;2022-11-15T10:46:20;4.38;;;2.80;;
22531;SDS011;11432;46.924;7.114;2022-11-15T10:48:47;5.15;;;2.85;;
22531;SDS011;11432;46.924;7.114;2022-11-15T10:51:20;3.83;;;2.60;;
22531;SDS011;11432;46.924;7.114;2022-11-15T10:53:53;4.07;;;2.58;;
22531;SDS011;11432;46.924;7.114;2022-11-15T10:56:22;5.45;;;2.53;;
22531;SDS011;11432;46.924;7.114;2022-11-15T10:58:51;5.65;;;3.35;;
22531;SDS011;11432;46.924;7.114;2022-11-15T11:01:22;7.50;;;3.03;;
22531;SDS011;11432;46.924;7.114;2022-11-15T11:11:51;4.78;;;3.13;;
22531;SDS011;11432;46.924;7.114;2022-11-15T11:14:33;4.90;;;3.03;;
22531;SDS011;11432;46.924;7.114;2022-11-15T11:17:18;3.70;;;2.65;;
22531;SDS011;11432;46.924;7.114;2022-11-15T11:20:05;6.25;;;2.92;;
22531;SDS011;11432;46.924;7.114;2022-11-15T11:36:35;6.20;;;3.38;;
22531;SDS011;11432;46.924;7.114;2022-11-15T11:39:29;5.07;;;3.13;;
22531;SDS011;11432;46.924;7.114;2022-11-15T11:47:23;5.60;;;3.03;;
22531;SDS011;11432;46.924;7.114;2022-11-15T11:49:57;5.38;;;3.47;;
22531;SDS011;11432;46.924;7.114;2022-11-15T11:57:51;6.18;;;2.75;;
22531;SDS011;11432;46.924;7.114;2022-11-15T12:00:41;4.68;;;2.80;;
22531;SDS011;11432;46.924;7.114;2022-11-15T12:03:25;4.85;;;2.85;;
22531;SDS011;11432;46.924;7.114;2022-11-15T12:06:01;6.78;;;3.00;;
22531;SDS011;11432;46.924;7.114;2022-11-15T12:08:43;6.90;;;3.35;;
22531;SDS011;11432;46.924;7.114;2022-11-15T12:11:26;5.75;;;2.97;;
22531;SDS011;11432;46.924;7.114;2022-11-15T12:14:01;4.68;;;2.88;;
22531;SDS011;11432;46.924;7.114;2022-11-15T12:16:31;6.25;;;3.00;;
22531;SDS011;11432;46.924;7.114;2022-11-15T12:18:59;4.30;;;3.20;;
22531;SDS011;11432;46.924;7.114;2022-11-15T12:24:21;5.57;;;3.38;;
22531;SDS011;11432;46.924;7.114;2022-11-15T12:29:37;5.25;;;3.40;;
22531;SDS011;11432;46.924;7.114;2022-11-15T12:32:14;4.68;;;3.35;;
22531;SDS011;11432;46.924;7.114;2022-11-15T12:34:56;5.75;;;3.45;;
22531;SDS011;11432;46.924;7.114;2022-11-15T12:45:27;5.18;;;3.60;;
22531;SDS011;11432;46.924;7.114;2022-11-15T12:47:53;6.40;;;3.97;;
22531;SDS011;11432;46.924;7.114;2022-11-15T12:51:03;6.90;;;4.20;;
22531;SDS011;11432;46.924;7.114;2022-11-15T12:56:08;6.40;;;4.63;;
22531;SDS011;11432;46.924;7.114;2022-11-15T12:58:44;6.32;;;4.50;;
22531;SDS011;11432;46.924;7.114;2022-11-15T13:12:11;10.63;;;5.10;;
22531;SDS011;11432;46.924;7.114;2022-11-15T13:17:38;7.68;;;5.00;;
22531;SDS011;11432;46.924;7.114;2022-11-15T13:30:52;7.13;;;4.45;;
22531;SDS011;11432;46.924;7.114;2022-11-15T13:35:56;7.25;;;4.70;;
22531;SDS011;11432;46.924;7.114;2022-11-15T13:40:49;7.57;;;5.38;;
22531;SDS011;11432;46.924;7.114;2022-11-15T13:48:34;10.30;;;5.97;;
22531;SDS011;11432;46.924;7.114;2022-11-15T13:51:01;11.63;;;6.97;;
22531;SDS011;11432;46.924;7.114;2022-11-15T13:53:30;9.90;;;6.75;;
22531;SDS011;11432;46.924;7.114;2022-11-15T13:55:58;10.52;;;5.10;;
22531;SDS011;11432;46.924;7.114;2022-11-15T13:58:24;7.65;;;5.40;;
22531;SDS011;11432;46.924;7.114;2022-11-15T14:00:57;9.95;;;4.93;;
22531;SDS011;11432;46.924;7.114;2022-11-15T14:03:25;7.25;;;5.10;;
22531;SDS011;11432;46.924;7.114;2022-11-15T14:08:40;9.38;;;4.60;;
22531;SDS011;11432;46.924;7.114;2022-11-15T14:11:08;9.30;;;5.18;;
22531;SDS011;11432;46.924;7.114;2022-11-15T14:13:41;9.63;;;5.68;;
22531;SDS011;11432;46.924;7.114;2022-11-15T14:16:23;7.28;;;4.72;;
22531;SDS011;11432;46.924;7.114;2022-11-15T14:18:59;9.63;;;5.25;;
22531;SDS011;11432;46.924;7.114;2022-11-15T14:21:25;7.28;;;5.13;;
22531;SDS011;11432;46.924;7.114;2022-11-15T14:23:50;12.40;;;5.40;;
22531;SDS011;11432;46.924;7.114;2022-11-15T14:26:27;8.68;;;5.15;;
22531;SDS011;11432;46.924;7.114;2022-11-15T14:28:57;10.70;;;5.90;;
22531;SDS011;11432;46.924;7.114;2022-11-15T14:31:49;6.85;;;4.85;;
22531;SDS011;11432;46.924;7.114;2022-11-15T14:34:14;8.30;;;5.47;;
22531;SDS011;11432;46.924;7.114;2022-11-15T14:36:40;7.28;;;4.82;;
22531;SDS011;11432;46.924;7.114;2022-11-15T14:39:06;7.82;;;5.28;;
22531;SDS011;11432;46.924;7.114;2022-11-15T14:41:34;6.47;;;4.97;;
22531;SDS011;11432;46.924;7.114;2022-11-15T14:44:05;8.27;;;5.50;;
22531;SDS011;11432;46.924;7.114;2022-11-15T14:46:31;7.82;;;5.25;;
22531;SDS011;11432;46.924;7.114;2022-11-15T14:48:57;10.02;;;5.20;;
22531;SDS011;11432;46.924;7.114;2022-11-15T14:51:23;9.20;;;5.30;;
22531;SDS011;11432;46.924;7.114;2022-11-15T14:53:48;9.77;;;5.20;;
22531;SDS011;11432;46.924;7.114;2022-11-15T14:56:14;7.90;;;5.50;;
22531;SDS011;11432;46.924;7.114;2022-11-15T14:58:41;9.43;;;5.88;;
22531;SDS011;11432;46.924;7.114;2022-11-15T15:01:20;8.15;;;5.90;;
22531;SDS011;11432;46.924;7.114;2022-11-15T15:03:48;9.05;;;6.45;;
22531;SDS011;11432;46.924;7.114;2022-11-15T15:06:16;10.20;;;6.43;;
22531;SDS011;11432;46.924;7.114;2022-11-15T15:08:42;11.13;;;6.45;;
22531;SDS011;11432;46.924;7.114;2022-11-15T15:11:16;7.72;;;5.55;;
22531;SDS011;11432;46.924;7.114;2022-11-15T15:13:46;11.95;;;7.40;;
22531;SDS011;11432;46.924;7.114;2022-11-15T15:16:11;14.88;;;6.93;;
22531;SDS011;11432;46.924;7.114;2022-11-15T15:18:37;9.63;;;6.35;;
22531;SDS011;11432;46.924;7.114;2022-11-15T15:21:04;11.35;;;6.80;;
22531;SDS011;11432;46.924;7.114;2022-11-15T15:23:47;10.05;;;6.65;;
22531;SDS011;11432;46.924;7.114;2022-11-15T15:26:13;13.98;;;9.05;;
22531;SDS011;11432;46.924;7.114;2022-11-15T15:28:39;12.25;;;6.68;;
22531;SDS011;11432;46.924;7.114;2022-11-15T15:31:04;11.82;;;7.03;;
22531;SDS011;11432;46.924;7.114;2022-11-15T15:33:30;10.38;;;6.38;;
22531;SDS011;11432;46.924;7.114;2022-11-15T15:35:57;8.90;;;6.80;;
22531;SDS011;11432;46.924;7.114;2022-11-15T15:38:22;7.90;;;6.03;;
22531;SDS011;11432;46.924;7.114;2022-11-15T15:40:48;8.60;;;5.90;;
22531;SDS011;11432;46.924;7.114;2022-11-15T15:43:13;8.85;;;5.60;;
22531;SDS011;11432;46.924;7.114;2022-11-15T15:45:39;9.10;;;6.35;;
22531;SDS011;11432;46.924;7.114;2022-11-15T15:48:09;8.93;;;5.78;;
22531;SDS011;11432;46.924;7.114;2022-11-15T15:50:40;8.38;;;6.13;;
22531;SDS011;11432;46.924;7.114;2022-11-15T15:53:08;10.35;;;6.72;;
22531;SDS011;11432;46.924;7.114;2022-11-15T15:55:35;11.38;;;6.78;;
22531;SDS011;11432;46.924;7.114;2022-11-15T15:58:02;8.07;;;6.03;;
22531;SDS011;11432;46.924;7.114;2022-11-15T16:00:28;9.30;;;6.32;;
22531;SDS011;11432;46.924;7.114;2022-11-15T16:02:54;9.45;;;5.82;;
22531;SDS011;11432;46.924;7.114;2022-11-15T16:05:19;8.38;;;5.90;;
22531;SDS011;11432;46.924;7.114;2022-11-15T16:07:46;10.85;;;6.30;;
22531;SDS011;11432;46.924;7.114;2022-11-15T16:10:16;9.05;;;6.47;;
22531;SDS011;11432;46.924;7.114;2022-11-15T16:12:53;9.88;;;6.53;;
22531;SDS011;11432;46.924;7.114;2022-11-15T16:15:20;11.70;;;7.40;;
22531;SDS011;11432;46.924;7.114;2022-11-15T16:17:48;9.93;;;7.50;;
22531;SDS011;11432;46.924;7.114;2022-11-15T16:20:34;11.98;;;7.97;;
22531;SDS011;11432;46.924;7.114;2022-11-15T16:23:05;14.02;;;7.47;;
22531;SDS011;11432;46.924;7.114;2022-11-15T16:25:45;10.20;;;6.80;;
22531;SDS011;11432;46.924;7.114;2022-11-15T16:28:22;10.48;;;7.10;;
22531;SDS011;11432;46.924;7.114;2022-11-15T16:30:58;13.38;;;7.82;;
22531;SDS011;11432;46.924;7.114;2022-11-15T16:33:32;11.30;;;7.53;;
22531;SDS011;11432;46.924;7.114;2022-11-15T16:35:58;10.23;;;6.50;;
22531;SDS011;11432;46.924;7.114;2022-11-15T16:38:24;12.55;;;6.78;;
22531;SDS011;11432;46.924;7.114;2022-11-15T16:40:50;10.63;;;7.32;;
22531;SDS011;11432;46.924;7.114;2022-11-15T16:43:15;10.52;;;6.60;;
22531;SDS011;11432;46.924;7.114;2022-11-15T16:45:41;14.65;;;7.35;;
22531;SDS011;11432;46.924;7.114;2022-11-15T16:48:07;10.27;;;6.63;;
22531;SDS011;11432;46.924;7.114;2022-11-15T16:50:50;11.95;;;7.32;;
22531;SDS011;11432;46.924;7.114;2022-11-15T16:53:20;8.90;;;6.95;;
22531;SDS011;11432;46.924;7.114;2022-11-15T16:55:45;10.45;;;6.13;;
22531;SDS011;11432;46.924;7.114;2022-11-15T16:58:11;8.90;;;6.20;;
22531;SDS011;11432;46.924;7.114;2022-11-15T17:00:36;8.80;;;6.53;;
22531;SDS011;11432;46.924;7.114;2022-11-15T17:03:02;11.40;;;6.15;;
22531;SDS011;11432;46.924;7.114;2022-11-15T17:05:28;9.25;;;6.60;;
22531;SDS011;11432;46.924;7.114;2022-11-15T17:07:54;10.50;;;6.45;;
22531;SDS011;11432;46.924;7.114;2022-11-15T17:10:21;8.45;;;6.57;;
22531;SDS011;11432;46.924;7.114;2022-11-15T17:12:48;9.82;;;7.15;;
22531;SDS011;11432;46.924;7.114;2022-11-15T17:15:14;9.98;;;6.95;;
22531;SDS011;11432;46.924;7.114;2022-11-15T17:17:40;9.05;;;6.68;;
22531;SDS011;11432;46.924;7.114;2022-11-15T17:20:08;9.45;;;6.90;;
22531;SDS011;11432;46.924;7.114;2022-11-15T17:22:41;8.48;;;6.47;;
22531;SDS011;11432;46.924;7.114;2022-11-15T17:25:07;11.23;;;7.13;;
22531;SDS011;11432;46.924;7.114;2022-11-15T17:27:33;9.95;;;6.75;;
22531;SDS011;11432;46.924;7.114;2022-11-15T17:29:59;12.27;;;6.82;;
22531;SDS011;11432;46.924;7.114;2022-11-15T17:32:24;10.68;;;7.03;;
22531;SDS011;11432;46.924;7.114;2022-11-15T17:34:50;10.25;;;7.07;;
22531;SDS011;11432;46.924;7.114;2022-11-15T17:37:15;10.43;;;7.07;;
22531;SDS011;11432;46.924;7.114;2022-11-15T17:39:41;12.15;;;7.53;;
22531;SDS011;11432;46.924;7.114;2022-11-15T17:42:06;9.10;;;6.47;;